createdAt,value
2024-02-23T00:00:48.199Z,98524.63
2024-02-23T00:03:15.844Z,98538.47
2024-02-23T00:05:43.179Z,98522.87
2024-02-23T00:08:10.902Z,98526.16
2024-02-23T00:10:38.549Z,98529.50
2024-02-23T00:13:05.757Z,98532.19
2024-02-23T00:15:33.763Z,98525.22
2024-02-23T00:18:01.386Z,98535.84
2024-02-23T00:20:28.928Z,98526.16
2024-02-23T00:22:56.295Z,98540.09
2024-02-23T00:25:24.403Z,98531.56
2024-02-23T00:27:51.698Z,98527.25
2024-02-23T00:30:19.056Z,98531.59
2024-02-23T00:32:47.410Z,98524.63
2024-02-23T00:35:16.162Z,98531.63
2024-02-23T00:37:43.443Z,98538.59
2024-02-23T00:40:11.568Z,98525.50
2024-02-23T00:42:38.769Z,98528.09
2024-02-23T00:45:06.196Z,98527.25
2024-02-23T00:47:36.776Z,98528.16
2024-02-23T00:50:04.178Z,98520.31
2024-02-23T00:52:31.379Z,98531.56
2024-02-23T00:54:59.040Z,98527.22
2024-02-23T00:57:31.217Z,98522.87
2024-02-23T00:59:58.938Z,98526.38
2024-02-23T01:02:26.183Z,98517.63
2024-02-23T01:04:58.069Z,98515.94
2024-02-23T01:07:26.559Z,98522.87
2024-02-23T01:09:55.191Z,98519.41
2024-02-23T01:12:22.671Z,98515.94
2024-02-23T01:14:50.399Z,98515.72
2024-02-23T01:17:17.720Z,98516.59
2024-02-23T01:19:45.795Z,98513.03
2024-02-23T01:22:13.630Z,98509.47
2024-02-23T01:24:40.801Z,98503.12
2024-02-23T01:27:08.115Z,98511.53
2024-02-23T01:29:35.611Z,98513.31
2024-02-23T01:32:03.060Z,98513.13
2024-02-23T01:34:30.303Z,98511.34
2024-02-23T01:36:57.930Z,98495.84
2024-02-23T01:39:25.170Z,98493.25
2024-02-23T01:41:52.408Z,98486.31
2024-02-23T01:44:21.926Z,98490.66
2024-02-23T01:46:49.258Z,98491.44
2024-02-23T01:49:16.638Z,98486.31
2024-02-23T01:51:44.446Z,98486.28
2024-02-23T01:54:11.770Z,98491.50
2024-02-23T01:56:40.847Z,98477.53
2024-02-23T01:59:08.523Z,98486.31
2024-02-23T02:01:35.743Z,98488.03
2024-02-23T02:04:03.369Z,98480.19
2024-02-23T02:06:30.756Z,98488.06
2024-02-23T02:08:58.070Z,98480.19
2024-02-23T02:11:25.642Z,98488.91
2024-02-23T02:13:52.929Z,98489.63
2024-02-23T02:16:20.124Z,98488.81
2024-02-23T02:18:47.668Z,98477.25
2024-02-23T02:21:15.124Z,98479.25
2024-02-23T02:23:42.657Z,98471.44
2024-02-23T02:26:10.317Z,98472.34
2024-02-23T02:28:37.574Z,98477.41
2024-02-23T02:31:04.782Z,98480.19
2024-02-23T02:33:32.358Z,98474.13
2024-02-23T02:36:00.209Z,98475.84
2024-02-23T02:38:27.573Z,98474.09
2024-02-23T02:40:55.106Z,98475.84
2024-02-23T02:43:22.549Z,98476.69
2024-02-23T02:45:50.197Z,98484.53
2024-02-23T02:48:17.828Z,98474.09
2024-02-23T02:50:45.564Z,98477.47
2024-02-23T02:53:12.841Z,98474.88
2024-02-23T02:55:42.320Z,98481.03
2024-02-23T02:58:09.753Z,98472.94
2024-02-23T03:00:36.924Z,98475.81
2024-02-23T03:03:04.564Z,98482.81
2024-02-23T03:05:31.878Z,98484.56
2024-02-23T03:07:59.344Z,98480.94
2024-02-23T03:10:26.825Z,98474.91
2024-02-23T03:12:54.024Z,98475.66
2024-02-23T03:15:21.264Z,98485.34
2024-02-23T03:17:48.852Z,98477.44
2024-02-23T03:20:16.794Z,98478.97
2024-02-23T03:22:44.071Z,98477.47
2024-02-23T03:25:11.561Z,98478.31
2024-02-23T03:27:38.796Z,98480.66
2024-02-23T03:30:06.448Z,98475.44
2024-02-23T03:32:37.724Z,98477.19
2024-02-23T03:35:06.154Z,98476.37
2024-02-23T03:37:33.761Z,98482.56
2024-02-23T03:40:01.973Z,98485.22
2024-02-23T03:42:29.274Z,98472.94
2024-02-23T03:44:56.748Z,98488.78
2024-02-23T03:47:24.039Z,98472.19
2024-02-23T03:49:51.334Z,98478.44
2024-02-23T03:52:18.876Z,98480.19
2024-02-23T03:54:46.127Z,98482.75
2024-02-23T03:57:13.289Z,98478.44
2024-02-23T03:59:42.276Z,98480.12
2024-02-23T04:02:10.060Z,98483.69
2024-02-23T04:04:37.677Z,98483.66
2024-02-23T04:07:05.047Z,98492.22
2024-02-23T04:09:32.892Z,98492.97
2024-02-23T04:12:00.673Z,98494.78
2024-02-23T04:14:28.048Z,98486.28
2024-02-23T04:16:55.888Z,98483.63
2024-02-23T04:19:23.480Z,98485.22
2024-02-23T04:21:50.700Z,98490.06
2024-02-23T04:24:17.946Z,98499.13
2024-02-23T04:26:45.393Z,98489.41
2024-02-23T04:29:12.892Z,98491.06
2024-02-23T04:31:40.113Z,98483.00
2024-02-23T04:34:07.665Z,98490.47
2024-02-23T04:36:34.902Z,98497.22
2024-02-23T04:39:02.141Z,98496.62
2024-02-23T04:41:30.076Z,98495.75
2024-02-23T04:44:03.116Z,98489.75
2024-02-23T04:46:31.929Z,98501.56
2024-02-23T04:48:59.194Z,98506.94
2024-02-23T04:51:26.624Z,98507.56
2024-02-23T04:53:54.138Z,98492.53
2024-02-23T04:56:24.079Z,98503.28
2024-02-23T04:58:52.335Z,98506.22
2024-02-23T05:01:20.652Z,98501.06
2024-02-23T05:03:48.363Z,98501.81
2024-02-23T05:06:15.600Z,98501.97
2024-02-23T05:08:43.289Z,98510.50
2024-02-23T05:11:10.781Z,98508.91
2024-02-23T05:13:40.443Z,98515.00
2024-02-23T05:16:07.978Z,98519.44
2024-02-23T05:18:35.437Z,98515.91
2024-02-23T05:21:02.860Z,98520.28
2024-02-23T05:23:30.410Z,98526.25
2024-02-23T05:25:57.733Z,98522.03
2024-02-23T05:28:24.932Z,98528.13
2024-02-23T05:30:52.722Z,98531.50
2024-02-23T05:33:21.888Z,98545.41
2024-02-23T05:35:52.072Z,98542.72
2024-02-23T05:38:19.962Z,98554.06
2024-02-23T05:40:47.245Z,98551.41
2024-02-23T05:43:14.507Z,98554.03
2024-02-23T05:45:42.072Z,98566.16
2024-02-23T05:48:09.397Z,98566.81
2024-02-23T05:50:36.764Z,98580.19
2024-02-23T05:53:05.868Z,98583.59
2024-02-23T05:55:33.680Z,98585.31
2024-02-23T05:58:00.921Z,98588.16
2024-02-23T06:00:31.031Z,98591.22
2024-02-23T06:03:51.618Z,98601.94
2024-02-23T06:06:51.787Z,98602.97
2024-02-23T06:09:20.350Z,98613.50
2024-02-23T06:11:47.912Z,98617.91
2024-02-23T06:14:15.341Z,98610.91
2024-02-23T06:16:42.888Z,98615.22
2024-02-23T06:19:10.211Z,98623.19
2024-02-23T06:21:37.854Z,98623.97
2024-02-23T06:24:06.217Z,98628.25
2024-02-23T06:26:33.650Z,98626.66
2024-02-23T06:29:01.317Z,98625.66
2024-02-23T06:31:28.986Z,98635.31
2024-02-23T06:33:56.588Z,98636.16
2024-02-23T06:36:23.849Z,98636.06
2024-02-23T06:38:51.431Z,98636.87
2024-02-23T06:41:18.913Z,98639.66
2024-02-23T06:43:46.282Z,98636.16
2024-02-23T06:46:13.789Z,98646.41
2024-02-23T06:48:41.193Z,98641.38
2024-02-23T06:51:11.400Z,98644.87
2024-02-23T06:53:39.503Z,98650.03
2024-02-23T06:56:07.137Z,98649.88
2024-02-23T06:58:34.447Z,98644.66
2024-02-23T07:01:04.319Z,98649.22
2024-02-23T07:03:31.701Z,98648.97
2024-02-23T07:05:59.058Z,98649.00
2024-02-23T07:08:26.758Z,98644.87
2024-02-23T07:10:54.475Z,98656.16
2024-02-23T07:13:22.305Z,98648.31
2024-02-23T07:15:50.623Z,98657.78
2024-02-23T07:18:17.957Z,98652.81
2024-02-23T07:20:45.653Z,98658.03
2024-02-23T07:23:13.513Z,98666.72
2024-02-23T07:25:42.155Z,98664.12
2024-02-23T07:28:09.601Z,98657.06
2024-02-23T07:30:37.385Z,98664.09
2024-02-23T07:33:04.718Z,98668.50
2024-02-23T07:35:32.088Z,98668.50
2024-02-23T07:37:59.740Z,98674.63
2024-02-23T07:40:26.983Z,98678.09
2024-02-23T07:42:54.187Z,98670.28
2024-02-23T07:45:21.678Z,98666.78
2024-02-23T07:47:49.084Z,98678.12
2024-02-23T07:50:17.248Z,98679.00
2024-02-23T07:52:44.800Z,98678.12
2024-02-23T07:57:40.787Z,98687.72
2024-02-23T08:00:10.956Z,98697.31
2024-02-23T08:02:39.719Z,98686.81
2024-02-23T08:05:08.668Z,98688.56
2024-02-23T08:07:36.482Z,98684.16
2024-02-23T08:10:06.460Z,98684.22
2024-02-23T08:12:35.830Z,98689.47
2024-02-23T08:15:05.653Z,98688.41
2024-02-23T08:17:33.084Z,98691.97
2024-02-23T08:20:01.197Z,98701.62
2024-02-23T08:22:32.861Z,98693.66
2024-02-23T08:25:01.603Z,98693.66
2024-02-23T08:27:29.074Z,98700.59
2024-02-23T08:29:56.404Z,98702.94
2024-02-23T08:32:24.026Z,98710.00
2024-02-23T08:34:54.044Z,98713.28
2024-02-23T08:37:21.646Z,98703.75
2024-02-23T08:39:49.206Z,98708.28
2024-02-23T08:42:16.446Z,98713.31
2024-02-23T08:44:43.811Z,98716.62
2024-02-23T08:47:11.371Z,98720.31
2024-02-23T08:49:38.698Z,98725.69
2024-02-23T08:52:06.278Z,98718.47
2024-02-23T08:54:33.882Z,98720.25
2024-02-23T08:57:01.159Z,98717.66
2024-02-23T08:59:28.471Z,98721.34
2024-02-23T09:01:56.043Z,98725.12
2024-02-23T09:04:23.456Z,98729.94
2024-02-23T09:06:51.967Z,98733.25
2024-02-23T09:09:19.468Z,98730.69
2024-02-23T09:11:48.527Z,98740.16
2024-02-23T09:14:16.449Z,98735.28
2024-02-23T09:16:44.006Z,98738.81
2024-02-23T09:19:11.404Z,98741.13
2024-02-23T09:21:38.710Z,98742.34
2024-02-23T09:24:06.557Z,98740.38
2024-02-23T09:26:34.089Z,98740.62
2024-02-23T09:29:01.637Z,98743.94
2024-02-23T09:31:32.849Z,98741.22
2024-02-23T09:34:00.465Z,98743.16
2024-02-23T09:36:27.792Z,98736.06
2024-02-23T09:38:55.278Z,98737.09
2024-02-23T09:41:23.566Z,98739.59
2024-02-23T09:43:52.020Z,98738.56
2024-02-23T09:46:20.237Z,98747.25
2024-02-23T09:48:49.040Z,98746.94
2024-02-23T09:51:16.334Z,98743.94
2024-02-23T09:53:43.973Z,98746.91
2024-02-23T09:56:11.569Z,98752.31
2024-02-23T09:58:39.243Z,98762.88
2024-02-23T10:01:06.805Z,98755.62
2024-02-23T10:03:34.635Z,98761.22
2024-02-23T10:06:06.085Z,98753.22
2024-02-23T10:08:33.508Z,98752.38
2024-02-23T10:11:02.376Z,98752.44
2024-02-23T10:13:30.931Z,98750.78
2024-02-23T10:16:10.200Z,98752.31
2024-02-23T10:18:44.652Z,98752.97
2024-02-23T10:21:13.192Z,98752.25
2024-02-23T10:23:40.558Z,98750.37
2024-02-23T10:26:08.472Z,98746.88
2024-02-23T10:28:36.383Z,98755.22
2024-02-23T10:31:03.973Z,98758.44
2024-02-23T10:33:32.456Z,98755.59
2024-02-23T10:36:01.271Z,98755.44
2024-02-23T10:38:29.957Z,98757.91
2024-02-23T10:40:58.150Z,98760.56
2024-02-23T10:43:29.395Z,98743.00
2024-02-23T10:45:56.899Z,98751.16
2024-02-23T10:48:24.508Z,98756.69
2024-02-23T10:50:51.822Z,98751.56
2024-02-23T10:53:20.410Z,98755.22
2024-02-23T10:55:47.958Z,98753.75
2024-02-23T10:58:17.191Z,98749.13
2024-02-23T11:00:47.059Z,98756.84
2024-02-23T11:03:15.105Z,98751.56
2024-02-23T11:05:42.535Z,98753.63
2024-02-23T11:08:10.089Z,98751.84
2024-02-23T11:10:44.230Z,98750.13
2024-02-23T11:13:11.593Z,98757.50
2024-02-23T11:15:42.597Z,98749.75
2024-02-23T11:18:43.655Z,98755.81
2024-02-23T11:21:12.028Z,98756.50
2024-02-23T11:23:43.682Z,98754.72
2024-02-23T11:26:11.540Z,98754.41
2024-02-23T11:28:45.379Z,98754.97
2024-02-23T11:31:13.634Z,98753.09
2024-02-23T11:33:41.496Z,98751.87
2024-02-23T11:36:10.434Z,98753.09
2024-02-23T11:38:37.862Z,98746.47
2024-02-23T11:41:05.800Z,98740.91
2024-02-23T11:43:34.882Z,98747.06
2024-02-23T11:46:02.138Z,98744.91
2024-02-23T11:48:29.837Z,98745.28
2024-02-23T11:50:58.028Z,98738.47
2024-02-23T11:53:26.590Z,98740.19
2024-02-23T11:55:54.463Z,98739.09
2024-02-23T11:58:21.655Z,98735.78
2024-02-23T12:00:49.030Z,98727.25
2024-02-23T12:03:17.521Z,98735.25
2024-02-23T12:05:45.014Z,98731.94
2024-02-23T12:08:12.508Z,98726.97
2024-02-23T12:10:40.472Z,98732.06
2024-02-23T12:13:07.884Z,98728.56
2024-02-23T12:15:35.109Z,98718.03
2024-02-23T12:18:04.486Z,98717.19
2024-02-23T12:20:34.402Z,98722.44
2024-02-23T12:23:02.151Z,98717.12
2024-02-23T12:25:29.752Z,98717.25
2024-02-23T12:27:58.104Z,98717.25
2024-02-23T12:30:27.760Z,98709.91
2024-02-23T12:33:06.084Z,98714.34
2024-02-23T12:35:33.549Z,98724.31
2024-02-23T12:38:01.270Z,98714.84
2024-02-23T12:40:30.321Z,98720.34
2024-02-23T12:42:58.202Z,98730.78
2024-02-23T12:45:26.995Z,98733.06
2024-02-23T12:47:54.455Z,98729.75
2024-02-23T12:50:22.171Z,98726.00
2024-02-23T12:52:50.226Z,98730.09
2024-02-23T12:55:17.443Z,98730.97
2024-02-23T12:57:44.777Z,98738.75
2024-02-23T13:00:12.616Z,98741.13
2024-02-23T13:02:40.186Z,98736.22
2024-02-23T13:05:08.109Z,98721.88
2024-02-23T13:07:35.975Z,98723.69
2024-02-23T13:10:03.406Z,98728.56
2024-02-23T13:12:30.702Z,98728.75
2024-02-23T13:14:58.207Z,98728.63
2024-02-23T13:17:25.598Z,98735.59
2024-02-23T13:20:05.231Z,98739.34
2024-02-23T13:22:38.563Z,98745.53
2024-02-23T13:25:05.867Z,98736.41
2024-02-23T13:27:33.113Z,98739.03
2024-02-23T13:30:00.620Z,98730.72
2024-02-23T13:32:28.059Z,98729.78
2024-02-23T13:34:55.417Z,98725.94
2024-02-23T13:37:22.926Z,98727.81
2024-02-23T13:39:50.245Z,98730.00
2024-02-23T13:42:17.462Z,98721.56
2024-02-23T13:44:45.014Z,98719.09
2024-02-23T13:47:12.809Z,98714.38
2024-02-23T13:49:40.541Z,98712.94
2024-02-23T13:52:08.037Z,98709.78
2024-02-23T13:54:35.264Z,98703.97
2024-02-23T13:57:02.669Z,98697.00
2024-02-23T13:59:32.915Z,98697.94
2024-02-23T14:02:00.241Z,98692.94
2024-02-23T14:04:27.820Z,98685.72
2024-02-23T14:06:55.859Z,98690.97
2024-02-23T14:09:23.092Z,98689.75
2024-02-23T14:11:50.686Z,98690.31
2024-02-23T14:14:18.633Z,98688.53
2024-02-23T14:16:46.454Z,98687.63
2024-02-23T14:19:14.133Z,98693.81
2024-02-23T14:21:41.918Z,98692.13
2024-02-23T14:24:09.352Z,98702.63
2024-02-23T14:26:37.061Z,98698.94
2024-02-23T14:29:04.551Z,98698.13
2024-02-23T14:31:33.444Z,98685.41
2024-02-23T14:34:01.135Z,98686.94
2024-02-23T14:36:28.603Z,98693.22
2024-02-23T14:38:56.035Z,98685.06
2024-02-23T14:41:24.172Z,98684.13
2024-02-23T14:43:52.537Z,98685.59
2024-02-23T14:46:20.169Z,98682.87
2024-02-23T14:48:49.716Z,98686.91
2024-02-23T14:51:17.157Z,98682.91
2024-02-23T14:53:44.458Z,98683.81
2024-02-23T14:56:12.091Z,98682.59
2024-02-23T14:58:39.983Z,98674.94
2024-02-23T15:01:07.667Z,98676.41
2024-02-23T15:03:35.276Z,98680.63
2024-02-23T15:06:03.125Z,98677.53
2024-02-23T15:08:30.592Z,98677.09
2024-02-23T15:10:58.271Z,98670.06
2024-02-23T15:13:25.605Z,98668.41
2024-02-23T15:15:52.863Z,98670.06
2024-02-23T15:18:20.375Z,98673.69
2024-02-23T15:20:48.784Z,98667.78
2024-02-23T15:23:16.081Z,98670.53
2024-02-23T15:25:45.235Z,98678.62
2024-02-23T15:28:14.542Z,98681.87
2024-02-23T15:30:41.901Z,98671.44
2024-02-23T15:33:09.578Z,98676.34
2024-02-23T15:35:37.405Z,98679.97
2024-02-23T15:38:04.736Z,98682.78
2024-02-23T15:40:32.309Z,98683.31
2024-02-23T15:43:01.459Z,98684.66
2024-02-23T15:45:30.435Z,98683.75
2024-02-23T15:47:58.188Z,98678.38
2024-02-23T15:50:42.909Z,98681.72
2024-02-23T15:53:16.331Z,98680.34
2024-02-23T15:55:43.663Z,98673.03
2024-02-23T15:58:11.894Z,98678.31
2024-02-23T16:00:40.923Z,98679.94
2024-02-23T16:03:08.412Z,98671.00
2024-02-23T16:05:35.808Z,98672.38
2024-02-23T16:08:04.838Z,98670.13
2024-02-23T16:10:32.829Z,98669.38
2024-02-23T16:13:00.873Z,98673.22
2024-02-23T16:15:29.179Z,98662.63
2024-02-23T16:17:57.751Z,98651.16
2024-02-23T16:20:25.492Z,98653.31
2024-02-23T16:22:53.871Z,98653.94
2024-02-23T16:25:21.364Z,98652.41
2024-02-23T16:27:48.627Z,98657.06
2024-02-23T16:30:15.932Z,98653.53
2024-02-23T16:32:43.675Z,98650.16
2024-02-23T16:35:16.911Z,98657.69
2024-02-23T16:37:44.788Z,98666.16
2024-02-23T16:40:29.028Z,98659.16
2024-02-23T16:42:57.396Z,98660.91
2024-02-23T16:45:27.070Z,98659.31
2024-02-23T16:47:55.499Z,98658.59
2024-02-23T16:50:23.168Z,98657.59
2024-02-23T16:52:50.433Z,98659.41
2024-02-23T16:55:17.729Z,98659.44
2024-02-23T16:57:45.366Z,98664.84
2024-02-23T17:00:12.848Z,98654.69
2024-02-23T17:02:40.213Z,98659.59
2024-02-23T17:05:09.482Z,98659.78
2024-02-23T17:07:38.432Z,98661.63
2024-02-23T17:10:06.343Z,98661.44
2024-02-23T17:12:34.114Z,98674.87
2024-02-23T17:15:01.953Z,98676.06
2024-02-23T17:17:29.255Z,98674.13
2024-02-23T17:19:57.029Z,98678.66
2024-02-23T17:22:26.064Z,98673.56
2024-02-23T17:24:53.578Z,98674.25
2024-02-23T17:27:22.199Z,98673.13
2024-02-23T17:29:49.775Z,98672.56
2024-02-23T17:32:17.070Z,98662.94
2024-02-23T17:34:44.639Z,98671.50
2024-02-23T17:37:12.113Z,98670.56
2024-02-23T17:39:39.853Z,98664.91
2024-02-23T17:42:07.406Z,98666.25
2024-02-23T17:44:34.639Z,98658.47
2024-02-23T17:47:02.867Z,98656.81
2024-02-23T17:49:31.551Z,98658.66
2024-02-23T17:51:58.805Z,98656.56
2024-02-23T17:54:26.065Z,98654.34
2024-02-23T17:56:53.840Z,98648.56
2024-02-23T17:59:21.267Z,98648.25
2024-02-23T18:01:48.771Z,98649.00
2024-02-23T18:04:16.308Z,98638.28
2024-02-23T18:06:43.651Z,98634.03
2024-02-23T18:09:10.958Z,98641.69
2024-02-23T18:11:39.446Z,98632.50
2024-02-23T18:14:06.869Z,98620.34
2024-02-23T18:16:34.065Z,98620.81
2024-02-23T18:19:05.028Z,98626.16
2024-02-23T18:21:32.616Z,98615.59
2024-02-23T18:23:59.828Z,98615.84
2024-02-23T18:26:27.339Z,98608.44
2024-02-23T18:28:54.553Z,98613.87
2024-02-23T18:31:21.850Z,98608.56
2024-02-23T18:33:50.971Z,98600.13
2024-02-23T18:36:19.110Z,98595.53
2024-02-23T18:38:46.391Z,98601.06
2024-02-23T18:41:13.989Z,98596.31
2024-02-23T18:43:41.476Z,98600.72
2024-02-23T18:46:09.501Z,98595.97
2024-02-23T18:48:37.194Z,98601.94
2024-02-23T18:51:04.836Z,98597.63
2024-02-23T18:53:32.266Z,98594.62
2024-02-23T18:55:59.974Z,98590.78
2024-02-23T18:58:27.205Z,98599.88
2024-02-23T19:00:57.886Z,98595.53
2024-02-23T19:03:25.592Z,98582.81
2024-02-23T19:05:52.984Z,98590.16
2024-02-23T19:08:20.891Z,98577.63
2024-02-23T19:10:48.496Z,98592.28
2024-02-23T19:13:15.750Z,98589.44
2024-02-23T19:15:44.935Z,98577.03
2024-02-23T19:18:12.552Z,98580.56
2024-02-23T19:20:39.981Z,98574.63
2024-02-23T19:23:07.251Z,98567.47
2024-02-23T19:25:36.250Z,98568.81
2024-02-23T19:28:03.939Z,98573.69
2024-02-23T19:30:36.981Z,98583.03
2024-02-23T19:33:04.795Z,98582.87
2024-02-23T19:35:32.115Z,98570.44
2024-02-23T19:37:59.373Z,98582.41
2024-02-23T19:40:26.901Z,98580.06
2024-02-23T19:42:54.753Z,98582.19
2024-02-23T19:45:22.457Z,98569.41
2024-02-23T19:47:50.064Z,98569.69
2024-02-23T19:50:17.819Z,98567.00
2024-02-23T19:52:45.102Z,98576.88
2024-02-23T19:55:12.627Z,98576.22
2024-02-23T19:57:39.888Z,98572.09
2024-02-23T20:00:07.561Z,98578.81
2024-02-23T20:02:35.164Z,98573.84
2024-02-23T20:05:02.631Z,98579.34
2024-02-23T20:07:30.170Z,98579.84
2024-02-23T20:09:59.504Z,98572.41
2024-02-23T20:12:28.162Z,98566.34
2024-02-23T20:14:56.038Z,98573.94
2024-02-23T20:17:23.832Z,98575.22
2024-02-23T20:19:51.254Z,98575.53
2024-02-23T20:22:20.195Z,98578.19
2024-02-23T20:24:47.864Z,98576.88
2024-02-23T20:27:15.227Z,98568.34
2024-02-23T20:29:42.444Z,98570.06
2024-02-23T20:32:16.510Z,98566.97
2024-02-23T20:34:50.594Z,98573.53
2024-02-23T20:37:18.197Z,98561.97
2024-02-23T20:39:45.427Z,98565.47
2024-02-23T20:42:12.780Z,98571.84
2024-02-23T20:44:40.542Z,98571.88
2024-02-23T20:47:08.145Z,98584.09
2024-02-23T20:49:35.557Z,98569.53
2024-02-23T20:52:03.065Z,98576.94
2024-02-23T20:54:30.334Z,98573.75
2024-02-23T20:56:57.697Z,98586.50
2024-02-23T20:59:25.935Z,98579.09
2024-02-23T21:01:53.600Z,98568.66
2024-02-23T21:04:20.898Z,98575.53
2024-02-23T21:06:48.647Z,98563.25
2024-02-23T21:09:17.207Z,98561.34
2024-02-23T21:11:44.559Z,98564.59
2024-02-23T21:14:14.982Z,98588.88
2024-02-23T21:16:42.204Z,98590.44
2024-02-23T21:19:09.971Z,98574.00
2024-02-23T21:21:37.566Z,98572.53
2024-02-23T21:24:05.420Z,98579.66
2024-02-23T21:26:32.714Z,98582.50
2024-02-23T21:29:00.477Z,98581.13
2024-02-23T21:31:27.736Z,98577.91
2024-02-23T21:33:56.642Z,98579.59
2024-02-23T21:36:24.156Z,98573.63
2024-02-23T21:38:51.522Z,98585.13
2024-02-23T21:41:18.785Z,98578.09
2024-02-23T21:43:46.236Z,98585.88
2024-02-23T21:46:13.683Z,98583.19
2024-02-23T21:48:42.151Z,98574.63
2024-02-23T21:51:10.089Z,98574.31
2024-02-23T21:53:37.826Z,98573.91
2024-02-23T21:56:05.448Z,98565.00
2024-02-23T21:58:33.425Z,98570.13
2024-02-23T22:01:01.067Z,98585.38
2024-02-23T22:03:29.371Z,98575.69
2024-02-23T22:05:56.745Z,98575.44
2024-02-23T22:08:24.060Z,98579.09
2024-02-23T22:10:51.730Z,98581.72
2024-02-23T22:13:18.946Z,98584.34
2024-02-23T22:15:46.162Z,98584.19
2024-02-23T22:18:14.454Z,98587.84
2024-02-23T22:20:41.872Z,98579.31
2024-02-23T22:23:11.416Z,98577.47
2024-02-23T22:25:38.965Z,98575.53
2024-02-23T22:28:06.359Z,98587.00
2024-02-23T22:30:33.555Z,98586.22
2024-02-23T22:33:01.272Z,98584.63
2024-02-23T22:35:28.622Z,98586.34
2024-02-23T22:37:55.846Z,98586.13
2024-02-23T22:40:24.824Z,98586.06
2024-02-23T22:42:52.131Z,98581.59
2024-02-23T22:45:19.445Z,98583.19
2024-02-23T22:47:48.144Z,98584.06
2024-02-23T22:50:16.793Z,98584.09
2024-02-23T22:52:44.029Z,98579.00
2024-02-23T22:55:11.511Z,98580.56
2024-02-23T22:57:39.650Z,98582.16
2024-02-23T23:00:10.436Z,98581.28
2024-02-23T23:02:40.061Z,98587.72
2024-02-23T23:05:08.242Z,98578.06
2024-02-23T23:07:37.090Z,98586.50
2024-02-23T23:10:05.451Z,98590.72
2024-02-23T23:12:33.018Z,98580.47
2024-02-23T23:15:00.638Z,98576.72
2024-02-23T23:17:28.948Z,98585.34
2024-02-23T23:19:56.444Z,98567.81
2024-02-23T23:22:23.880Z,98566.19
2024-02-23T23:24:51.591Z,98575.25
2024-02-23T23:27:18.803Z,98573.63
2024-02-23T23:29:46.179Z,98576.16
2024-02-23T23:32:14.030Z,98571.47
2024-02-23T23:34:44.140Z,98579.78
2024-02-23T23:37:11.504Z,98571.62
2024-02-23T23:39:39.027Z,98568.19
2024-02-23T23:42:06.252Z,98581.97
2024-02-23T23:44:33.507Z,98576.84
2024-02-23T23:47:00.976Z,98573.16
2024-02-23T23:50:08.022Z,98580.66
2024-02-23T23:52:36.703Z,98575.06
2024-02-23T23:55:04.089Z,98575.03
2024-02-23T23:57:32.997Z,98579.84
